<?xml version="1.0" encoding="UTF-8" standalone="no" ?>
<gpx xmlns="http://www.topografix.com/GPX/1/1" xmlns:xsi="http://www.w3.org/2001/XMLSchema-instance" xsi:schemaLocation="http://www.topografix.com/GPX/1/1 http://www.topografix.com/GPX/1/1/gpx.xsd" version="1.1" creator="VisuGPX - https://www.visugpx.com">
  <metadata>
    <name>Les lacs d'Estibe Aute</name>
  </metadata>
  <wpt lat="42.8271" lon="-0.09563">
    <ele>1560</ele>
    <name><![CDATA[Bifucation-cabane-Russel-1560m]]></name>
    <desc><![CDATA[Bifucation-cabane-Russel-1560m]]></desc>
    <cmt><![CDATA[Bifucation-cabane-Russel-1560m]]></cmt>
  </wpt>
  <wpt lat="42.81904" lon="-0.09828">
    <ele>1610</ele>
    <name><![CDATA[Bifurcation-1610m]]></name>
    <desc><![CDATA[Bifurcation-1610m]]></desc>
    <cmt><![CDATA[Bifurcation-1610m]]></cmt>
  </wpt>
  <wpt lat="42.82926" lon="-0.09617">
    <ele>1535</ele>
    <name><![CDATA[Cabane de Pouey Caut]]></name>
    <desc><![CDATA[Cabane de Pouey Caut]]></desc>
    <cmt><![CDATA[Cabane de Pouey Caut]]></cmt>
  </wpt>
  <wpt lat="42.81043" lon="-0.12582">
    <ele>2622</ele>
    <name><![CDATA[Col-Estibe-Aute-2622m]]></name>
    <desc><![CDATA[Col-Estibe-Aute-2622m















06-OCT-13 12:47:51]]></desc>
    <cmt><![CDATA[Col-Estibe-Aute-2622m















06-OCT-13 12:47:51]]></cmt>
  </wpt>
  <wpt lat="42.81331" lon="-0.10571">
    <ele>2067</ele>
    <name><![CDATA[Croisement-Lac-d-Estom-Soubiran]]></name>
    <desc><![CDATA[Croisement-Lac-d-Estom-Soubiran















06-OCT-13 14:38:23]]></desc>
    <cmt><![CDATA[Croisement-Lac-d-Estom-Soubiran















06-OCT-13 14:38:23]]></cmt>
  </wpt>
  <wpt lat="42.85347" lon="-0.098">
    <ele>1363.9</ele>
    <name><![CDATA[Depart-La-Fruitiere-1371m]]></name>
    <desc><![CDATA[Depart-La-Fruitiere-1371m















06-OCT-13 16:38:11]]></desc>
    <cmt><![CDATA[Depart-La-Fruitiere-1371m















06-OCT-13 16:38:11]]></cmt>
  </wpt>
  <wpt lat="42.81666" lon="-0.1166">
    <ele>2360</ele>
    <name><![CDATA[Lacs-d-Estibe-Aute-2360m]]></name>
    <desc><![CDATA[Lacs-d-Estibe-Aute-2360m]]></desc>
    <cmt><![CDATA[Lacs-d-Estibe-Aute-2360m]]></cmt>
  </wpt>
  <wpt lat="42.80636" lon="-0.12365">
    <ele>2786.3</ele>
    <name><![CDATA[Pic-d-Estibe-Aute-2816m]]></name>
    <desc><![CDATA[Pic DEstibe Aute-2816m]]></desc>
    <cmt><![CDATA[Pic DEstibe Aute-2816m]]></cmt>
  </wpt>
  <trk>
    <name><![CDATA[Lacs-et-Col-d-Estibe-Aute-Mariano-le-06-10-2013]]></name>
    <trkseg>
      <trkpt lat="42.85343" lon="-0.09808">
        <ele>1271.0002441406</ele>
        <time>2013-10-06T06:39:15Z</time>
      </trkpt>
      <trkpt lat="42.85327" lon="-0.09806">
        <ele>1271.9614257812</ele>
        <time>2013-10-06T06:40:15Z</time>
      </trkpt>
      <trkpt lat="42.85302" lon="-0.09805">
        <ele>1275.3259277344</ele>
        <time>2013-10-06T06:40:38Z</time>
      </trkpt>
      <trkpt lat="42.85289" lon="-0.09811">
        <ele>1276.7683105469</ele>
        <time>2013-10-06T06:40:51Z</time>
      </trkpt>
      <trkpt lat="42.85267" lon="-0.09809">
        <ele>1278.2102050781</ele>
        <time>2013-10-06T06:41:12Z</time>
      </trkpt>
      <trkpt lat="42.85239" lon="-0.09795">
        <ele>1282.0554199219</ele>
        <time>2013-10-06T06:42:01Z</time>
      </trkpt>
      <trkpt lat="42.85224" lon="-0.09778">
        <ele>1282.5361328125</ele>
        <time>2013-10-06T06:42:16Z</time>
      </trkpt>
      <trkpt lat="42.85203" lon="-0.09777">
        <ele>1284.939453125</ele>
        <time>2013-10-06T06:42:35Z</time>
      </trkpt>
      <trkpt lat="42.85185" lon="-0.09774">
        <ele>1286.8618164062</ele>
        <time>2013-10-06T06:42:53Z</time>
      </trkpt>
      <trkpt lat="42.85167" lon="-0.09781">
        <ele>1289.2651367188</ele>
        <time>2013-10-06T06:43:09Z</time>
      </trkpt>
      <trkpt lat="42.85146" lon="-0.09778">
        <ele>1289.2651367188</ele>
        <time>2013-10-06T06:43:25Z</time>
      </trkpt>
      <trkpt lat="42.85127" lon="-0.09781">
        <ele>1291.1877441406</ele>
        <time>2013-10-06T06:43:41Z</time>
      </trkpt>
      <trkpt lat="42.85107" lon="-0.09775">
        <ele>1292.1494140625</ele>
        <time>2013-10-06T06:43:57Z</time>
      </trkpt>
      <trkpt lat="42.85089" lon="-0.09776">
        <ele>1294.5524902344</ele>
        <time>2013-10-06T06:44:14Z</time>
      </trkpt>
      <trkpt lat="42.85069" lon="-0.09783">
        <ele>1296.9558105469</ele>
        <time>2013-10-06T06:44:33Z</time>
      </trkpt>
      <trkpt lat="42.85047" lon="-0.09773">
        <ele>1298.3977050781</ele>
        <time>2013-10-06T06:44:51Z</time>
      </trkpt>
      <trkpt lat="42.85032" lon="-0.0977">
        <ele>1300.8010253906</ele>
        <time>2013-10-06T06:45:06Z</time>
      </trkpt>
      <trkpt lat="42.85004" lon="-0.09762">
        <ele>1303.6850585938</ele>
        <time>2013-10-06T06:45:36Z</time>
      </trkpt>
      <trkpt lat="42.84978" lon="-0.09756">
        <ele>1306.0881347656</ele>
        <time>2013-10-06T06:46:03Z</time>
      </trkpt>
      <trkpt lat="42.8495" lon="-0.09745">
        <ele>1308.0112304688</ele>
        <time>2013-10-06T06:46:28Z</time>
      </trkpt>
      <trkpt lat="42.84931" lon="-0.09733">
        <ele>1311.3757324219</ele>
        <time>2013-10-06T06:46:54Z</time>
      </trkpt>
      <trkpt lat="42.84905" lon="-0.09703">
        <ele>1312.3369140625</ele>
        <time>2013-10-06T06:47:22Z</time>
      </trkpt>
      <trkpt lat="42.84882" lon="-0.09691">
        <ele>1314.2595214844</ele>
        <time>2013-10-06T06:47:43Z</time>
      </trkpt>
      <trkpt lat="42.84865" lon="-0.09685">
        <ele>1315.2209472656</ele>
        <time>2013-10-06T06:47:59Z</time>
      </trkpt>
      <trkpt lat="42.84841" lon="-0.09672">
        <ele>1317.1435546875</ele>
        <time>2013-10-06T06:48:22Z</time>
      </trkpt>
      <trkpt lat="42.8482" lon="-0.09658">
        <ele>1319.0661621094</ele>
        <time>2013-10-06T06:48:41Z</time>
      </trkpt>
      <trkpt lat="42.84794" lon="-0.09649">
        <ele>1323.8725585938</ele>
        <time>2013-10-06T06:49:07Z</time>
      </trkpt>
      <trkpt lat="42.84775" lon="-0.09644">
        <ele>1326.2761230469</ele>
        <time>2013-10-06T06:49:27Z</time>
      </trkpt>
      <trkpt lat="42.84752" lon="-0.09631">
        <ele>1327.7180175781</ele>
        <time>2013-10-06T06:49:49Z</time>
      </trkpt>
      <trkpt lat="42.84727" lon="-0.09625">
        <ele>1330.1213378906</ele>
        <time>2013-10-06T06:50:11Z</time>
      </trkpt>
      <trkpt lat="42.84708" lon="-0.09619">
        <ele>1332.0439453125</ele>
        <time>2013-10-06T06:50:32Z</time>
      </trkpt>
      <trkpt lat="42.84691" lon="-0.09621">
        <ele>1334.9279785156</ele>
        <time>2013-10-06T06:50:53Z</time>
      </trkpt>
      <trkpt lat="42.84654" lon="-0.09609">
        <ele>1337.8117675781</ele>
        <time>2013-10-06T06:51:34Z</time>
      </trkpt>
      <trkpt lat="42.84634" lon="-0.09607">
        <ele>1339.2536621094</ele>
        <time>2013-10-06T06:51:49Z</time>
      </trkpt>
      <trkpt lat="42.84616" lon="-0.09606">
        <ele>1340.6958007812</ele>
        <time>2013-10-06T06:52:05Z</time>
      </trkpt>
      <trkpt lat="42.84599" lon="-0.0961">
        <ele>1342.1379394531</ele>
        <time>2013-10-06T06:52:20Z</time>
      </trkpt>
      <trkpt lat="42.84574" lon="-0.09621">
        <ele>1346.9443359375</ele>
        <time>2013-10-06T06:53:04Z</time>
      </trkpt>
      <trkpt lat="42.84505" lon="-0.09624">
        <ele>1353.6735839844</ele>
        <time>2013-10-06T06:54:13Z</time>
      </trkpt>
      <trkpt lat="42.84487" lon="-0.09628">
        <ele>1356.0769042969</ele>
        <time>2013-10-06T06:54:25Z</time>
      </trkpt>
      <trkpt lat="42.84472" lon="-0.09634">
        <ele>1360.8835449219</ele>
        <time>2013-10-06T06:54:45Z</time>
      </trkpt>
      <trkpt lat="42.84454" lon="-0.09643">
        <ele>1366.1706542969</ele>
        <time>2013-10-06T06:55:15Z</time>
      </trkpt>
      <trkpt lat="42.84437" lon="-0.09651">
        <ele>1370.0158691406</ele>
        <time>2013-10-06T06:55:41Z</time>
      </trkpt>
      <trkpt lat="42.84425" lon="-0.09661">
        <ele>1375.3032226562</ele>
        <time>2013-10-06T06:56:21Z</time>
      </trkpt>
      <trkpt lat="42.84387" lon="-0.09668">
        <ele>1385.3969726562</ele>
        <time>2013-10-06T06:59:35Z</time>
      </trkpt>
      <trkpt lat="42.84345" lon="-0.09662">
        <ele>1389.2424316406</ele>
        <time>2013-10-06T07:00:30Z</time>
      </trkpt>
      <trkpt lat="42.84321" lon="-0.09664">
        <ele>1390.2038574219</ele>
        <time>2013-10-06T07:00:53Z</time>
      </trkpt>
      <trkpt lat="42.84295" lon="-0.09664">
        <ele>1393.0876464844</ele>
        <time>2013-10-06T07:01:14Z</time>
      </trkpt>
      <trkpt lat="42.84277" lon="-0.09658">
        <ele>1392.6071777344</ele>
        <time>2013-10-06T07:01:34Z</time>
      </trkpt>
      <trkpt lat="42.84252" lon="-0.09653">
        <ele>1394.5295410156</ele>
        <time>2013-10-06T07:01:58Z</time>
      </trkpt>
      <trkpt lat="42.84235" lon="-0.09652">
        <ele>1395.0102539062</ele>
        <time>2013-10-06T07:02:11Z</time>
      </trkpt>
      <trkpt lat="42.84221" lon="-0.0965">
        <ele>1395.0102539062</ele>
        <time>2013-10-06T07:02:22Z</time>
      </trkpt>
      <trkpt lat="42.84199" lon="-0.09655">
        <ele>1396.9328613281</ele>
        <time>2013-10-06T07:02:40Z</time>
      </trkpt>
      <trkpt lat="42.84193" lon="-0.09692">
        <ele>1398.85546875</ele>
        <time>2013-10-06T07:03:04Z</time>
      </trkpt>
      <trkpt lat="42.84188" lon="-0.0971">
        <ele>1400.2976074219</ele>
        <time>2013-10-06T07:03:19Z</time>
      </trkpt>
      <trkpt lat="42.84174" lon="-0.09725">
        <ele>1401.7395019531</ele>
        <time>2013-10-06T07:03:37Z</time>
      </trkpt>
      <trkpt lat="42.8416" lon="-0.09733">
        <ele>1403.1813964844</ele>
        <time>2013-10-06T07:03:52Z</time>
      </trkpt>
      <trkpt lat="42.84139" lon="-0.09734">
        <ele>1405.5849609375</ele>
        <time>2013-10-06T07:04:15Z</time>
      </trkpt>
      <trkpt lat="42.84124" lon="-0.0972">
        <ele>1408.46875</ele>
        <time>2013-10-06T07:04:34Z</time>
      </trkpt>
      <trkpt lat="42.84109" lon="-0.09698">
        <ele>1412.3139648438</ele>
        <time>2013-10-06T07:04:59Z</time>
      </trkpt>
      <trkpt lat="42.84087" lon="-0.09677">
        <ele>1420.0046386719</ele>
        <time>2013-10-06T07:05:39Z</time>
      </trkpt>
      <trkpt lat="42.8407" lon="-0.09659">
        <ele>1419.0432128906</ele>
        <time>2013-10-06T07:06:00Z</time>
      </trkpt>
      <trkpt lat="42.84046" lon="-0.09652">
        <ele>1419.5239257812</ele>
        <time>2013-10-06T07:06:15Z</time>
      </trkpt>
      <trkpt lat="42.84017" lon="-0.09661">
        <ele>1420.9660644531</ele>
        <time>2013-10-06T07:06:48Z</time>
      </trkpt>
      <trkpt lat="42.83998" lon="-0.09645">
        <ele>1422.4079589844</ele>
        <time>2013-10-06T07:07:13Z</time>
      </trkpt>
      <trkpt lat="42.83976" lon="-0.09631">
        <ele>1423.8498535156</ele>
        <time>2013-10-06T07:07:39Z</time>
      </trkpt>
      <trkpt lat="42.83959" lon="-0.09627">
        <ele>1425.2917480469</ele>
        <time>2013-10-06T07:07:54Z</time>
      </trkpt>
      <trkpt lat="42.83944" lon="-0.09627">
        <ele>1426.7338867188</ele>
        <time>2013-10-06T07:08:09Z</time>
      </trkpt>
      <trkpt lat="42.83931" lon="-0.09623">
        <ele>1426.7338867188</ele>
        <time>2013-10-06T07:08:22Z</time>
      </trkpt>
      <trkpt lat="42.83917" lon="-0.09614">
        <ele>1427.2145996094</ele>
        <time>2013-10-06T07:08:34Z</time>
      </trkpt>
      <trkpt lat="42.839" lon="-0.09611">
        <ele>1428.17578125</ele>
        <time>2013-10-06T07:08:48Z</time>
      </trkpt>
      <trkpt lat="42.83873" lon="-0.09609">
        <ele>1429.6176757812</ele>
        <time>2013-10-06T07:09:15Z</time>
      </trkpt>
      <trkpt lat="42.83851" lon="-0.09598">
        <ele>1431.0598144531</ele>
        <time>2013-10-06T07:09:39Z</time>
      </trkpt>
      <trkpt lat="42.83837" lon="-0.09599">
        <ele>1432.0209960938</ele>
        <time>2013-10-06T07:09:49Z</time>
      </trkpt>
      <trkpt lat="42.83822" lon="-0.09602">
        <ele>1431.5402832031</ele>
        <time>2013-10-06T07:10:02Z</time>
      </trkpt>
      <trkpt lat="42.83801" lon="-0.09611">
        <ele>1432.9821777344</ele>
        <time>2013-10-06T07:10:22Z</time>
      </trkpt>
      <trkpt lat="42.83782" lon="-0.09617">
        <ele>1433.462890625</ele>
        <time>2013-10-06T07:10:37Z</time>
      </trkpt>
      <trkpt lat="42.83763" lon="-0.09619">
        <ele>1433.9436035156</ele>
        <time>2013-10-06T07:10:52Z</time>
      </trkpt>
      <trkpt lat="42.83734" lon="-0.09628">
        <ele>1435.8662109375</ele>
        <time>2013-10-06T07:11:15Z</time>
      </trkpt>
      <trkpt lat="42.8371" lon="-0.09645">
        <ele>1437.3083496094</ele>
        <time>2013-10-06T07:11:44Z</time>
      </trkpt>
      <trkpt lat="42.83695" lon="-0.09654">
        <ele>1437.7890625</ele>
        <time>2013-10-06T07:11:59Z</time>
      </trkpt>
      <trkpt lat="42.8368" lon="-0.09667">
        <ele>1440.1923828125</ele>
        <time>2013-10-06T07:12:23Z</time>
      </trkpt>
      <trkpt lat="42.83667" lon="-0.0967">
        <ele>1440.6728515625</ele>
        <time>2013-10-06T07:12:37Z</time>
      </trkpt>
      <trkpt lat="42.83651" lon="-0.09674">
        <ele>1440.1923828125</ele>
        <time>2013-10-06T07:12:55Z</time>
      </trkpt>
      <trkpt lat="42.83639" lon="-0.09666">
        <ele>1443.076171875</ele>
        <time>2013-10-06T07:13:36Z</time>
      </trkpt>
      <trkpt lat="42.8361" lon="-0.09662">
        <ele>1444.5180664062</ele>
        <time>2013-10-06T07:14:01Z</time>
      </trkpt>
      <trkpt lat="42.83591" lon="-0.09667">
        <ele>1444.9987792969</ele>
        <time>2013-10-06T07:14:16Z</time>
      </trkpt>
      <trkpt lat="42.83572" lon="-0.0967">
        <ele>1445.4794921875</ele>
        <time>2013-10-06T07:14:33Z</time>
      </trkpt>
      <trkpt lat="42.83552" lon="-0.09661">
        <ele>1448.8439941406</ele>
        <time>2013-10-06T07:14:57Z</time>
      </trkpt>
      <trkpt lat="42.83527" lon="-0.09645">
        <ele>1449.3247070312</ele>
        <time>2013-10-06T07:15:18Z</time>
      </trkpt>
      <trkpt lat="42.83487" lon="-0.09629">
        <ele>1452.689453125</ele>
        <time>2013-10-06T07:15:50Z</time>
      </trkpt>
      <trkpt lat="42.83472" lon="-0.09622">
        <ele>1456.0539550781</ele>
        <time>2013-10-06T07:16:08Z</time>
      </trkpt>
      <trkpt lat="42.83446" lon="-0.09607">
        <ele>1455.5734863281</ele>
        <time>2013-10-06T07:16:33Z</time>
      </trkpt>
      <trkpt lat="42.83412" lon="-0.09614">
        <ele>1457.49609375</ele>
        <time>2013-10-06T07:17:00Z</time>
      </trkpt>
      <trkpt lat="42.83394" lon="-0.09601">
        <ele>1458.9379882812</ele>
        <time>2013-10-06T07:17:18Z</time>
      </trkpt>
      <trkpt lat="42.83377" lon="-0.09594">
        <ele>1460.3798828125</ele>
        <time>2013-10-06T07:17:40Z</time>
      </trkpt>
      <trkpt lat="42.83335" lon="-0.09598">
        <ele>1462.783203125</ele>
        <time>2013-10-06T07:18:12Z</time>
      </trkpt>
      <trkpt lat="42.83281" lon="-0.09604">
        <ele>1467.1091308594</ele>
        <time>2013-10-06T07:18:59Z</time>
      </trkpt>
      <trkpt lat="42.83266" lon="-0.09607">
        <ele>1466.6284179688</ele>
        <time>2013-10-06T07:19:07Z</time>
      </trkpt>
      <trkpt lat="42.83251" lon="-0.09601">
        <ele>1468.0705566406</ele>
        <time>2013-10-06T07:20:00Z</time>
      </trkpt>
      <trkpt lat="42.83205" lon="-0.09576">
        <ele>1483.9321289062</ele>
        <time>2013-10-06T07:21:38Z</time>
      </trkpt>
      <trkpt lat="42.83074" lon="-0.09617">
        <ele>1501.716796875</ele>
        <time>2013-10-06T07:24:04Z</time>
      </trkpt>
      <trkpt lat="42.83053" lon="-0.09611">
        <ele>1502.6779785156</ele>
        <time>2013-10-06T07:24:17Z</time>
      </trkpt>
      <trkpt lat="42.83028" lon="-0.09628">
        <ele>1503.1586914062</ele>
        <time>2013-10-06T07:24:58Z</time>
      </trkpt>
      <trkpt lat="42.83015" lon="-0.09643">
        <ele>1503.6394042969</ele>
        <time>2013-10-06T07:25:20Z</time>
      </trkpt>
      <trkpt lat="42.83008" lon="-0.0966">
        <ele>1502.197265625</ele>
        <time>2013-10-06T07:25:33Z</time>
      </trkpt>
      <trkpt lat="42.82989" lon="-0.09659">
        <ele>1503.1586914062</ele>
        <time>2013-10-06T07:26:19Z</time>
      </trkpt>
      <trkpt lat="42.8298" lon="-0.09642">
        <ele>1503.1586914062</ele>
        <time>2013-10-06T07:26:30Z</time>
      </trkpt>
      <trkpt lat="42.82954" lon="-0.09643">
        <ele>1505.0812988281</ele>
        <time>2013-10-06T07:26:46Z</time>
      </trkpt>
      <trkpt lat="42.82938" lon="-0.0965">
        <ele>1506.5231933594</ele>
        <time>2013-10-06T07:27:01Z</time>
      </trkpt>
      <trkpt lat="42.82921" lon="-0.0966">
        <ele>1507.4846191406</ele>
        <time>2013-10-06T07:27:22Z</time>
      </trkpt>
      <trkpt lat="42.82894" lon="-0.09654">
        <ele>1509.8876953125</ele>
        <time>2013-10-06T07:27:50Z</time>
      </trkpt>
      <trkpt lat="42.8285" lon="-0.09638">
        <ele>1514.2136230469</ele>
        <time>2013-10-06T07:28:42Z</time>
      </trkpt>
      <trkpt lat="42.82765" lon="-0.09602">
        <ele>1521.4235839844</ele>
        <time>2013-10-06T07:30:16Z</time>
      </trkpt>
      <trkpt lat="42.82709" lon="-0.09568">
        <ele>1528.6335449219</ele>
        <time>2013-10-06T07:31:32Z</time>
      </trkpt>
      <trkpt lat="42.8269" lon="-0.09578">
        <ele>1529.5947265625</ele>
        <time>2013-10-06T07:32:11Z</time>
      </trkpt>
      <trkpt lat="42.82641" lon="-0.09618">
        <ele>1534.4016113281</ele>
        <time>2013-10-06T07:33:21Z</time>
      </trkpt>
      <trkpt lat="42.82576" lon="-0.09628">
        <ele>1537.7661132812</ele>
        <time>2013-10-06T07:34:33Z</time>
      </trkpt>
      <trkpt lat="42.82525" lon="-0.09617">
        <ele>1538.2468261719</ele>
        <time>2013-10-06T07:35:36Z</time>
      </trkpt>
      <trkpt lat="42.82497" lon="-0.09625">
        <ele>1538.7275390625</ele>
        <time>2013-10-06T07:36:11Z</time>
      </trkpt>
      <trkpt lat="42.82476" lon="-0.09624">
        <ele>1540.1694335938</ele>
        <time>2013-10-06T07:36:34Z</time>
      </trkpt>
      <trkpt lat="42.82444" lon="-0.09628">
        <ele>1541.1306152344</ele>
        <time>2013-10-06T07:37:13Z</time>
      </trkpt>
      <trkpt lat="42.82394" lon="-0.09633">
        <ele>1543.5339355469</ele>
        <time>2013-10-06T07:38:02Z</time>
      </trkpt>
      <trkpt lat="42.82382" lon="-0.09668">
        <ele>1544.9758300781</ele>
        <time>2013-10-06T07:39:10Z</time>
      </trkpt>
      <trkpt lat="42.8236" lon="-0.09689">
        <ele>1548.3405761719</ele>
        <time>2013-10-06T07:39:25Z</time>
      </trkpt>
      <trkpt lat="42.82322" lon="-0.09708">
        <ele>1549.7827148438</ele>
        <time>2013-10-06T07:39:58Z</time>
      </trkpt>
      <trkpt lat="42.82308" lon="-0.09712">
        <ele>1549.3020019531</ele>
        <time>2013-10-06T07:40:17Z</time>
      </trkpt>
      <trkpt lat="42.82289" lon="-0.09717">
        <ele>1551.224609375</ele>
        <time>2013-10-06T07:40:42Z</time>
      </trkpt>
      <trkpt lat="42.82186" lon="-0.09766">
        <ele>1560.8376464844</ele>
        <time>2013-10-06T07:42:32Z</time>
      </trkpt>
      <trkpt lat="42.82118" lon="-0.09799">
        <ele>1571.412109375</ele>
        <time>2013-10-06T07:44:01Z</time>
      </trkpt>
      <trkpt lat="42.8209" lon="-0.09798">
        <ele>1572.8542480469</ele>
        <time>2013-10-06T07:44:45Z</time>
      </trkpt>
      <trkpt lat="42.82051" lon="-0.09791">
        <ele>1578.1413574219</ele>
        <time>2013-10-06T07:45:35Z</time>
      </trkpt>
      <trkpt lat="42.82022" lon="-0.09795">
        <ele>1581.9868164062</ele>
        <time>2013-10-06T07:46:08Z</time>
      </trkpt>
      <trkpt lat="42.81972" lon="-0.09833">
        <ele>1591.119140625</ele>
        <time>2013-10-06T07:47:37Z</time>
      </trkpt>
      <trkpt lat="42.81886" lon="-0.09814">
        <ele>1591.119140625</ele>
        <time>2013-10-06T07:49:03Z</time>
      </trkpt>
      <trkpt lat="42.81887" lon="-0.0987">
        <ele>1604.0971679688</ele>
        <time>2013-10-06T08:00:07Z</time>
      </trkpt>
      <trkpt lat="42.81869" lon="-0.10025">
        <ele>1636.3012695312</ele>
        <time>2013-10-06T08:03:42Z</time>
      </trkpt>
      <trkpt lat="42.81797" lon="-0.10076">
        <ele>1671.3891601562</ele>
        <time>2013-10-06T08:10:51Z</time>
      </trkpt>
      <trkpt lat="42.81757" lon="-0.10123">
        <ele>1694.4609375</ele>
        <time>2013-10-06T08:13:26Z</time>
      </trkpt>
      <trkpt lat="42.81752" lon="-0.10143">
        <ele>1698.3061523438</ele>
        <time>2013-10-06T08:13:53Z</time>
      </trkpt>
      <trkpt lat="42.81741" lon="-0.10169">
        <ele>1716.0905761719</ele>
        <time>2013-10-06T08:15:40Z</time>
      </trkpt>
      <trkpt lat="42.817" lon="-0.10277">
        <ele>1766.0791015625</ele>
        <time>2013-10-06T08:22:53Z</time>
      </trkpt>
      <trkpt lat="42.81682" lon="-0.10289">
        <ele>1780.9797363281</ele>
        <time>2013-10-06T08:24:15Z</time>
      </trkpt>
      <trkpt lat="42.81668" lon="-0.10338">
        <ele>1804.5319824219</ele>
        <time>2013-10-06T08:26:49Z</time>
      </trkpt>
      <trkpt lat="42.81639" lon="-0.10401">
        <ele>1834.3327636719</ele>
        <time>2013-10-06T08:29:54Z</time>
      </trkpt>
      <trkpt lat="42.81626" lon="-0.10426">
        <ele>1846.8298339844</ele>
        <time>2013-10-06T08:31:20Z</time>
      </trkpt>
      <trkpt lat="42.81619" lon="-0.1045">
        <ele>1855.4819335938</ele>
        <time>2013-10-06T08:32:26Z</time>
      </trkpt>
      <trkpt lat="42.816" lon="-0.10471">
        <ele>1869.4211425781</ele>
        <time>2013-10-06T08:34:17Z</time>
      </trkpt>
      <trkpt lat="42.81532" lon="-0.10504">
        <ele>1916.5256347656</ele>
        <time>2013-10-06T08:39:18Z</time>
      </trkpt>
      <trkpt lat="42.81449" lon="-0.10518">
        <ele>1967.4753417969</ele>
        <time>2013-10-06T08:45:22Z</time>
      </trkpt>
      <trkpt lat="42.81433" lon="-0.10529">
        <ele>1972.7626953125</ele>
        <time>2013-10-06T08:57:56Z</time>
      </trkpt>
      <trkpt lat="42.81406" lon="-0.10529">
        <ele>1986.2211914062</ele>
        <time>2013-10-06T09:01:07Z</time>
      </trkpt>
      <trkpt lat="42.81392" lon="-0.10533">
        <ele>1996.7956542969</ele>
        <time>2013-10-06T09:01:49Z</time>
      </trkpt>
      <trkpt lat="42.81372" lon="-0.10556">
        <ele>2010.25390625</ele>
        <time>2013-10-06T09:03:33Z</time>
      </trkpt>
      <trkpt lat="42.8136" lon="-0.10567">
        <ele>2022.2705078125</ele>
        <time>2013-10-06T09:04:28Z</time>
      </trkpt>
      <trkpt lat="42.81357" lon="-0.1062">
        <ele>2039.0935058594</ele>
        <time>2013-10-06T09:06:24Z</time>
      </trkpt>
      <trkpt lat="42.81359" lon="-0.10642">
        <ele>2052.5520019531</ele>
        <time>2013-10-06T09:08:01Z</time>
      </trkpt>
      <trkpt lat="42.8137" lon="-0.10654">
        <ele>2049.6682128906</ele>
        <time>2013-10-06T09:09:17Z</time>
      </trkpt>
      <trkpt lat="42.81413" lon="-0.10705">
        <ele>2060.2426757812</ele>
        <time>2013-10-06T09:12:19Z</time>
      </trkpt>
      <trkpt lat="42.81461" lon="-0.10777">
        <ele>2085.2368164062</ele>
        <time>2013-10-06T09:16:21Z</time>
      </trkpt>
      <trkpt lat="42.81476" lon="-0.10812">
        <ele>2092.9274902344</ele>
        <time>2013-10-06T09:17:32Z</time>
      </trkpt>
      <trkpt lat="42.81474" lon="-0.10826">
        <ele>2107.3471679688</ele>
        <time>2013-10-06T09:19:37Z</time>
      </trkpt>
      <trkpt lat="42.81459" lon="-0.10855">
        <ele>2120.3249511719</ele>
        <time>2013-10-06T09:21:28Z</time>
      </trkpt>
      <trkpt lat="42.81459" lon="-0.10878">
        <ele>2126.0930175781</ele>
        <time>2013-10-06T09:22:16Z</time>
      </trkpt>
      <trkpt lat="42.81468" lon="-0.10896">
        <ele>2131.3801269531</ele>
        <time>2013-10-06T09:22:47Z</time>
      </trkpt>
      <trkpt lat="42.81477" lon="-0.10912">
        <ele>2146.2807617188</ele>
        <time>2013-10-06T09:25:43Z</time>
      </trkpt>
      <trkpt lat="42.81481" lon="-0.10944">
        <ele>2162.1423339844</ele>
        <time>2013-10-06T09:27:16Z</time>
      </trkpt>
      <trkpt lat="42.81488" lon="-0.11011">
        <ele>2199.1530761719</ele>
        <time>2013-10-06T09:30:46Z</time>
      </trkpt>
      <trkpt lat="42.81497" lon="-0.11037">
        <ele>2203.9597167969</ele>
        <time>2013-10-06T09:32:32Z</time>
      </trkpt>
      <trkpt lat="42.81506" lon="-0.11049">
        <ele>2211.650390625</ele>
        <time>2013-10-06T09:33:03Z</time>
      </trkpt>
      <trkpt lat="42.8152" lon="-0.11058">
        <ele>2214.5341796875</ele>
        <time>2013-10-06T09:33:28Z</time>
      </trkpt>
      <trkpt lat="42.81536" lon="-0.11067">
        <ele>2217.8986816406</ele>
        <time>2013-10-06T09:33:52Z</time>
      </trkpt>
      <trkpt lat="42.81544" lon="-0.11058">
        <ele>2225.1086425781</ele>
        <time>2013-10-06T09:39:58Z</time>
      </trkpt>
      <trkpt lat="42.81553" lon="-0.11076">
        <ele>2234.2412109375</ele>
        <time>2013-10-06T09:44:58Z</time>
      </trkpt>
      <trkpt lat="42.81538" lon="-0.11119">
        <ele>2249.1416015625</ele>
        <time>2013-10-06T09:46:33Z</time>
      </trkpt>
      <trkpt lat="42.81528" lon="-0.11137">
        <ele>2252.5063476562</ele>
        <time>2013-10-06T09:47:02Z</time>
      </trkpt>
      <trkpt lat="42.81519" lon="-0.1117">
        <ele>2260.6774902344</ele>
        <time>2013-10-06T09:48:10Z</time>
      </trkpt>
      <trkpt lat="42.8151" lon="-0.11186">
        <ele>2266.4453125</ele>
        <time>2013-10-06T09:49:00Z</time>
      </trkpt>
      <trkpt lat="42.81526" lon="-0.11208">
        <ele>2279.4230957031</ele>
        <time>2013-10-06T09:50:24Z</time>
      </trkpt>
      <trkpt lat="42.81538" lon="-0.11239">
        <ele>2295.765625</ele>
        <time>2013-10-06T09:52:11Z</time>
      </trkpt>
      <trkpt lat="42.81558" lon="-0.11315">
        <ele>2315.47265625</ele>
        <time>2013-10-06T09:54:47Z</time>
      </trkpt>
      <trkpt lat="42.81576" lon="-0.11359">
        <ele>2333.2570800781</ele>
        <time>2013-10-06T09:56:42Z</time>
      </trkpt>
      <trkpt lat="42.81591" lon="-0.11415">
        <ele>2346.7153320312</ele>
        <time>2013-10-06T09:58:29Z</time>
      </trkpt>
      <trkpt lat="42.81594" lon="-0.11446">
        <ele>2345.2734375</ele>
        <time>2013-10-06T09:59:41Z</time>
      </trkpt>
      <trkpt lat="42.81575" lon="-0.11472">
        <ele>2343.3508300781</ele>
        <time>2013-10-06T10:00:56Z</time>
      </trkpt>
      <trkpt lat="42.81567" lon="-0.1149">
        <ele>2339.986328125</ele>
        <time>2013-10-06T10:01:14Z</time>
      </trkpt>
      <trkpt lat="42.81561" lon="-0.1151">
        <ele>2337.1022949219</ele>
        <time>2013-10-06T10:01:35Z</time>
      </trkpt>
      <trkpt lat="42.81549" lon="-0.11519">
        <ele>2336.6215820312</ele>
        <time>2013-10-06T10:01:58Z</time>
      </trkpt>
      <trkpt lat="42.81546" lon="-0.11537">
        <ele>2336.1411132812</ele>
        <time>2013-10-06T10:02:33Z</time>
      </trkpt>
      <trkpt lat="42.81529" lon="-0.11556">
        <ele>2331.3342285156</ele>
        <time>2013-10-06T10:03:04Z</time>
      </trkpt>
      <trkpt lat="42.81521" lon="-0.11571">
        <ele>2328.4504394531</ele>
        <time>2013-10-06T10:03:28Z</time>
      </trkpt>
      <trkpt lat="42.81504" lon="-0.11596">
        <ele>2324.6052246094</ele>
        <time>2013-10-06T10:04:03Z</time>
      </trkpt>
      <trkpt lat="42.81491" lon="-0.11601">
        <ele>2325.0856933594</ele>
        <time>2013-10-06T10:04:23Z</time>
      </trkpt>
      <trkpt lat="42.81483" lon="-0.11637">
        <ele>2332.7763671875</ele>
        <time>2013-10-06T10:05:13Z</time>
      </trkpt>
      <trkpt lat="42.81464" lon="-0.1165">
        <ele>2337.1022949219</ele>
        <time>2013-10-06T10:05:39Z</time>
      </trkpt>
      <trkpt lat="42.81449" lon="-0.11677">
        <ele>2335.6604003906</ele>
        <time>2013-10-06T10:06:18Z</time>
      </trkpt>
      <trkpt lat="42.81455" lon="-0.11713">
        <ele>2335.1796875</ele>
        <time>2013-10-06T10:06:58Z</time>
      </trkpt>
      <trkpt lat="42.81447" lon="-0.1173">
        <ele>2334.2185058594</ele>
        <time>2013-10-06T10:07:20Z</time>
      </trkpt>
      <trkpt lat="42.81443" lon="-0.11748">
        <ele>2331.3342285156</ele>
        <time>2013-10-06T10:07:37Z</time>
      </trkpt>
      <trkpt lat="42.81437" lon="-0.11767">
        <ele>2327.4890136719</ele>
        <time>2013-10-06T10:07:58Z</time>
      </trkpt>
      <trkpt lat="42.81443" lon="-0.11785">
        <ele>2326.0471191406</ele>
        <time>2013-10-06T10:08:17Z</time>
      </trkpt>
      <trkpt lat="42.81442" lon="-0.11804">
        <ele>2327.4890136719</ele>
        <time>2013-10-06T10:08:36Z</time>
      </trkpt>
      <trkpt lat="42.81445" lon="-0.11835">
        <ele>2327.4890136719</ele>
        <time>2013-10-06T10:08:55Z</time>
      </trkpt>
      <trkpt lat="42.81445" lon="-0.11874">
        <ele>2328.4504394531</ele>
        <time>2013-10-06T10:10:05Z</time>
      </trkpt>
      <trkpt lat="42.81408" lon="-0.11943">
        <ele>2328.9309082031</ele>
        <time>2013-10-06T10:11:37Z</time>
      </trkpt>
      <trkpt lat="42.8136" lon="-0.11998">
        <ele>2331.8149414062</ele>
        <time>2013-10-06T10:13:28Z</time>
      </trkpt>
      <trkpt lat="42.8132" lon="-0.12078">
        <ele>2373.1518554688</ele>
        <time>2013-10-06T10:17:54Z</time>
      </trkpt>
      <trkpt lat="42.81306" lon="-0.12084">
        <ele>2378.9194335938</ele>
        <time>2013-10-06T10:18:26Z</time>
      </trkpt>
      <trkpt lat="42.81275" lon="-0.1207">
        <ele>2386.1296386719</ele>
        <time>2013-10-06T10:19:02Z</time>
      </trkpt>
      <trkpt lat="42.81276" lon="-0.12095">
        <ele>2390.9360351562</ele>
        <time>2013-10-06T10:19:34Z</time>
      </trkpt>
      <trkpt lat="42.81279" lon="-0.12122">
        <ele>2399.5881347656</ele>
        <time>2013-10-06T10:20:20Z</time>
      </trkpt>
      <trkpt lat="42.81276" lon="-0.12161">
        <ele>2407.2785644531</ele>
        <time>2013-10-06T10:20:59Z</time>
      </trkpt>
      <trkpt lat="42.81256" lon="-0.12161">
        <ele>2416.8918457031</ele>
        <time>2013-10-06T10:21:36Z</time>
      </trkpt>
      <trkpt lat="42.81274" lon="-0.12182">
        <ele>2425.0627441406</ele>
        <time>2013-10-06T10:22:44Z</time>
      </trkpt>
      <trkpt lat="42.81262" lon="-0.1222">
        <ele>2435.1567382812</ele>
        <time>2013-10-06T10:23:45Z</time>
      </trkpt>
      <trkpt lat="42.81246" lon="-0.12253">
        <ele>2449.0959472656</ele>
        <time>2013-10-06T10:25:02Z</time>
      </trkpt>
      <trkpt lat="42.81243" lon="-0.12281">
        <ele>2460.6318359375</ele>
        <time>2013-10-06T10:26:02Z</time>
      </trkpt>
      <trkpt lat="42.81212" lon="-0.12293">
        <ele>2471.2060546875</ele>
        <time>2013-10-06T10:27:19Z</time>
      </trkpt>
      <trkpt lat="42.812" lon="-0.12298">
        <ele>2481.3000488281</ele>
        <time>2013-10-06T10:28:51Z</time>
      </trkpt>
      <trkpt lat="42.81187" lon="-0.12324">
        <ele>2490.4323730469</ele>
        <time>2013-10-06T10:30:08Z</time>
      </trkpt>
      <trkpt lat="42.81184" lon="-0.12342">
        <ele>2496.2006835938</ele>
        <time>2013-10-06T10:30:40Z</time>
      </trkpt>
      <trkpt lat="42.81156" lon="-0.12354">
        <ele>2506.7749023438</ele>
        <time>2013-10-06T10:32:16Z</time>
      </trkpt>
      <trkpt lat="42.81131" lon="-0.12364">
        <ele>2514.9462890625</ele>
        <time>2013-10-06T10:33:30Z</time>
      </trkpt>
      <trkpt lat="42.81106" lon="-0.12377">
        <ele>2527.443359375</ele>
        <time>2013-10-06T10:34:40Z</time>
      </trkpt>
      <trkpt lat="42.81107" lon="-0.12396">
        <ele>2532.73046875</ele>
        <time>2013-10-06T10:35:18Z</time>
      </trkpt>
      <trkpt lat="42.81088" lon="-0.12406">
        <ele>2541.3825683594</ele>
        <time>2013-10-06T10:36:27Z</time>
      </trkpt>
      <trkpt lat="42.81094" lon="-0.12425">
        <ele>2545.2277832031</ele>
        <time>2013-10-06T10:37:11Z</time>
      </trkpt>
      <trkpt lat="42.81103" lon="-0.12446">
        <ele>2558.2055664062</ele>
        <time>2013-10-06T10:38:54Z</time>
      </trkpt>
      <trkpt lat="42.81088" lon="-0.12465">
        <ele>2567.337890625</ele>
        <time>2013-10-06T10:40:03Z</time>
      </trkpt>
      <trkpt lat="42.81074" lon="-0.12477">
        <ele>2570.2219238281</ele>
        <time>2013-10-06T10:40:34Z</time>
      </trkpt>
      <trkpt lat="42.8106" lon="-0.12501">
        <ele>2578.8737792969</ele>
        <time>2013-10-06T10:41:27Z</time>
      </trkpt>
      <trkpt lat="42.81044" lon="-0.12525">
        <ele>2590.4096679688</ele>
        <time>2013-10-06T10:42:40Z</time>
      </trkpt>
      <trkpt lat="42.81049" lon="-0.12546">
        <ele>2599.5419921875</ele>
        <time>2013-10-06T10:43:41Z</time>
      </trkpt>
      <trkpt lat="42.81054" lon="-0.12578">
        <ele>2618.7685546875</ele>
        <time>2013-10-06T10:45:45Z</time>
      </trkpt>
      <trkpt lat="42.81044" lon="-0.1258">
        <ele>2625.978515625</ele>
        <time>2013-10-06T10:56:42Z</time>
      </trkpt>
      <trkpt lat="42.81054" lon="-0.12569">
        <ele>2619.7299804688</ele>
        <time>2013-10-06T11:01:39Z</time>
      </trkpt>
      <trkpt lat="42.81036" lon="-0.12512">
        <ele>2590.8903808594</ele>
        <time>2013-10-06T11:04:11Z</time>
      </trkpt>
      <trkpt lat="42.81042" lon="-0.12494">
        <ele>2581.7578125</ele>
        <time>2013-10-06T11:04:59Z</time>
      </trkpt>
      <trkpt lat="42.81042" lon="-0.12462">
        <ele>2566.857421875</ele>
        <time>2013-10-06T11:06:04Z</time>
      </trkpt>
      <trkpt lat="42.81045" lon="-0.1243">
        <ele>2553.3989257812</ele>
        <time>2013-10-06T11:07:05Z</time>
      </trkpt>
      <trkpt lat="42.81055" lon="-0.12409">
        <ele>2544.2663574219</ele>
        <time>2013-10-06T11:07:52Z</time>
      </trkpt>
      <trkpt lat="42.81063" lon="-0.1238">
        <ele>2537.537109375</ele>
        <time>2013-10-06T11:09:03Z</time>
      </trkpt>
      <trkpt lat="42.81075" lon="-0.1237">
        <ele>2529.3659667969</ele>
        <time>2013-10-06T11:09:34Z</time>
      </trkpt>
      <trkpt lat="42.81095" lon="-0.12368">
        <ele>2528.4047851562</ele>
        <time>2013-10-06T11:09:48Z</time>
      </trkpt>
      <trkpt lat="42.81092" lon="-0.12355">
        <ele>2520.7141113281</ele>
        <time>2013-10-06T11:10:45Z</time>
      </trkpt>
      <trkpt lat="42.81134" lon="-0.12353">
        <ele>2512.0622558594</ele>
        <time>2013-10-06T11:12:08Z</time>
      </trkpt>
      <trkpt lat="42.81149" lon="-0.12341">
        <ele>2502.9296875</ele>
        <time>2013-10-06T11:13:15Z</time>
      </trkpt>
      <trkpt lat="42.81166" lon="-0.12334">
        <ele>2500.0458984375</ele>
        <time>2013-10-06T11:13:34Z</time>
      </trkpt>
      <trkpt lat="42.81193" lon="-0.12317">
        <ele>2490.9130859375</ele>
        <time>2013-10-06T11:14:31Z</time>
      </trkpt>
      <trkpt lat="42.81213" lon="-0.1229">
        <ele>2480.3388671875</ele>
        <time>2013-10-06T11:15:36Z</time>
      </trkpt>
      <trkpt lat="42.81228" lon="-0.12285">
        <ele>2475.0512695312</ele>
        <time>2013-10-06T11:16:05Z</time>
      </trkpt>
      <trkpt lat="42.81242" lon="-0.12275">
        <ele>2474.0900878906</ele>
        <time>2013-10-06T11:16:23Z</time>
      </trkpt>
      <trkpt lat="42.8126" lon="-0.12265">
        <ele>2467.8415527344</ele>
        <time>2013-10-06T11:16:52Z</time>
      </trkpt>
      <trkpt lat="42.8125" lon="-0.12249">
        <ele>2463.03515625</ele>
        <time>2013-10-06T11:17:18Z</time>
      </trkpt>
      <trkpt lat="42.81263" lon="-0.12231">
        <ele>2453.421875</ele>
        <time>2013-10-06T11:17:54Z</time>
      </trkpt>
      <trkpt lat="42.8126" lon="-0.12211">
        <ele>2448.1345214844</ele>
        <time>2013-10-06T11:18:23Z</time>
      </trkpt>
      <trkpt lat="42.81275" lon="-0.12206">
        <ele>2443.3278808594</ele>
        <time>2013-10-06T11:18:47Z</time>
      </trkpt>
      <trkpt lat="42.81262" lon="-0.12185">
        <ele>2432.2729492188</ele>
        <time>2013-10-06T11:19:53Z</time>
      </trkpt>
      <trkpt lat="42.81274" lon="-0.12168">
        <ele>2426.0241699219</ele>
        <time>2013-10-06T11:20:20Z</time>
      </trkpt>
      <trkpt lat="42.8129" lon="-0.12153">
        <ele>2414.4885253906</ele>
        <time>2013-10-06T11:21:22Z</time>
      </trkpt>
      <trkpt lat="42.813" lon="-0.12141">
        <ele>2411.1237792969</ele>
        <time>2013-10-06T11:21:47Z</time>
      </trkpt>
      <trkpt lat="42.8132" lon="-0.12119">
        <ele>2401.5107421875</ele>
        <time>2013-10-06T11:22:36Z</time>
      </trkpt>
      <trkpt lat="42.81333" lon="-0.12094">
        <ele>2392.8586425781</ele>
        <time>2013-10-06T11:23:36Z</time>
      </trkpt>
      <trkpt lat="42.81349" lon="-0.12073">
        <ele>2381.3229980469</ele>
        <time>2013-10-06T11:24:46Z</time>
      </trkpt>
      <trkpt lat="42.81343" lon="-0.12049">
        <ele>2372.1904296875</ele>
        <time>2013-10-06T11:26:02Z</time>
      </trkpt>
      <trkpt lat="42.81345" lon="-0.12026">
        <ele>2356.3286132812</ele>
        <time>2013-10-06T11:27:27Z</time>
      </trkpt>
      <trkpt lat="42.81359" lon="-0.12015">
        <ele>2354.88671875</ele>
        <time>2013-10-06T11:27:55Z</time>
      </trkpt>
      <trkpt lat="42.8142" lon="-0.11923">
        <ele>2340.466796875</ele>
        <time>2013-10-06T11:30:31Z</time>
      </trkpt>
      <trkpt lat="42.81438" lon="-0.11894">
        <ele>2339.0249023438</ele>
        <time>2013-10-06T11:31:14Z</time>
      </trkpt>
      <trkpt lat="42.81443" lon="-0.11876">
        <ele>2339.0249023438</ele>
        <time>2013-10-06T11:31:27Z</time>
      </trkpt>
      <trkpt lat="42.81441" lon="-0.11751">
        <ele>2340.466796875</ele>
        <time>2013-10-06T11:33:38Z</time>
      </trkpt>
      <trkpt lat="42.81446" lon="-0.11726">
        <ele>2341.9089355469</ele>
        <time>2013-10-06T11:34:02Z</time>
      </trkpt>
      <trkpt lat="42.81455" lon="-0.11686">
        <ele>2348.6381835938</ele>
        <time>2013-10-06T11:34:43Z</time>
      </trkpt>
      <trkpt lat="42.81467" lon="-0.11672">
        <ele>2345.7541503906</ele>
        <time>2013-10-06T11:35:03Z</time>
      </trkpt>
      <trkpt lat="42.81467" lon="-0.1165">
        <ele>2344.7927246094</ele>
        <time>2013-10-06T11:35:30Z</time>
      </trkpt>
      <trkpt lat="42.81476" lon="-0.11617">
        <ele>2343.3508300781</ele>
        <time>2013-10-06T11:36:11Z</time>
      </trkpt>
      <trkpt lat="42.81472" lon="-0.116">
        <ele>2339.0249023438</ele>
        <time>2013-10-06T11:36:30Z</time>
      </trkpt>
      <trkpt lat="42.81493" lon="-0.11579">
        <ele>2337.5830078125</ele>
        <time>2013-10-06T11:37:11Z</time>
      </trkpt>
      <trkpt lat="42.81503" lon="-0.11565">
        <ele>2339.986328125</ele>
        <time>2013-10-06T11:37:25Z</time>
      </trkpt>
      <trkpt lat="42.81514" lon="-0.11555">
        <ele>2343.3508300781</ele>
        <time>2013-10-06T11:37:38Z</time>
      </trkpt>
      <trkpt lat="42.81524" lon="-0.11536">
        <ele>2344.7927246094</ele>
        <time>2013-10-06T11:38:18Z</time>
      </trkpt>
      <trkpt lat="42.81541" lon="-0.11525">
        <ele>2346.7153320312</ele>
        <time>2013-10-06T11:38:48Z</time>
      </trkpt>
      <trkpt lat="42.8156" lon="-0.11502">
        <ele>2348.1574707031</ele>
        <time>2013-10-06T11:39:26Z</time>
      </trkpt>
      <trkpt lat="42.81568" lon="-0.11493">
        <ele>2350.5607910156</ele>
        <time>2013-10-06T11:47:34Z</time>
      </trkpt>
      <trkpt lat="42.81579" lon="-0.11473">
        <ele>2355.3674316406</ele>
        <time>2013-10-06T11:49:58Z</time>
      </trkpt>
      <trkpt lat="42.81587" lon="-0.11457">
        <ele>2358.2512207031</ele>
        <time>2013-10-06T11:50:28Z</time>
      </trkpt>
      <trkpt lat="42.81595" lon="-0.11423">
        <ele>2361.6159667969</ele>
        <time>2013-10-06T11:51:29Z</time>
      </trkpt>
      <trkpt lat="42.81541" lon="-0.11263">
        <ele>2321.2404785156</ele>
        <time>2013-10-06T11:57:41Z</time>
      </trkpt>
      <trkpt lat="42.81531" lon="-0.11213">
        <ele>2302.4948730469</ele>
        <time>2013-10-06T12:00:37Z</time>
      </trkpt>
      <trkpt lat="42.81511" lon="-0.11194">
        <ele>2289.0363769531</ele>
        <time>2013-10-06T12:02:04Z</time>
      </trkpt>
      <trkpt lat="42.81516" lon="-0.11176">
        <ele>2281.345703125</ele>
        <time>2013-10-06T12:02:54Z</time>
      </trkpt>
      <trkpt lat="42.81539" lon="-0.11122">
        <ele>2270.771484375</ele>
        <time>2013-10-06T12:04:43Z</time>
      </trkpt>
      <trkpt lat="42.81548" lon="-0.11094">
        <ele>2263.0808105469</ele>
        <time>2013-10-06T12:06:27Z</time>
      </trkpt>
      <trkpt lat="42.81556" lon="-0.1107">
        <ele>2252.5063476562</ele>
        <time>2013-10-06T12:07:49Z</time>
      </trkpt>
      <trkpt lat="42.81532" lon="-0.11056">
        <ele>2244.8156738281</ele>
        <time>2013-10-06T12:08:43Z</time>
      </trkpt>
      <trkpt lat="42.8151" lon="-0.11043">
        <ele>2241.451171875</ele>
        <time>2013-10-06T12:10:11Z</time>
      </trkpt>
      <trkpt lat="42.815" lon="-0.11029">
        <ele>2234.7219238281</ele>
        <time>2013-10-06T12:11:08Z</time>
      </trkpt>
      <trkpt lat="42.81491" lon="-0.11002">
        <ele>2226.55078125</ele>
        <time>2013-10-06T12:12:51Z</time>
      </trkpt>
      <trkpt lat="42.81477" lon="-0.1092">
        <ele>2188.0981445312</ele>
        <time>2013-10-06T12:19:43Z</time>
      </trkpt>
      <trkpt lat="42.81463" lon="-0.10886">
        <ele>2172.236328125</ele>
        <time>2013-10-06T12:21:53Z</time>
      </trkpt>
      <trkpt lat="42.81457" lon="-0.10853">
        <ele>2161.1811523438</ele>
        <time>2013-10-06T12:23:05Z</time>
      </trkpt>
      <trkpt lat="42.81468" lon="-0.10825">
        <ele>2152.5290527344</ele>
        <time>2013-10-06T12:24:14Z</time>
      </trkpt>
      <trkpt lat="42.81485" lon="-0.10809">
        <ele>2141.9548339844</ele>
        <time>2013-10-06T12:25:22Z</time>
      </trkpt>
      <trkpt lat="42.81448" lon="-0.10746">
        <ele>2119.3637695312</ele>
        <time>2013-10-06T12:28:01Z</time>
      </trkpt>
      <trkpt lat="42.81433" lon="-0.10736">
        <ele>2114.0764160156</ele>
        <time>2013-10-06T12:28:35Z</time>
      </trkpt>
      <trkpt lat="42.81426" lon="-0.10716">
        <ele>2109.2700195312</ele>
        <time>2013-10-06T12:29:02Z</time>
      </trkpt>
      <trkpt lat="42.81418" lon="-0.10694">
        <ele>2101.0986328125</ele>
        <time>2013-10-06T12:31:04Z</time>
      </trkpt>
      <trkpt lat="42.81392" lon="-0.10669">
        <ele>2089.08203125</ele>
        <time>2013-10-06T12:32:09Z</time>
      </trkpt>
      <trkpt lat="42.81377" lon="-0.1066">
        <ele>2084.2756347656</ele>
        <time>2013-10-06T12:32:30Z</time>
      </trkpt>
      <trkpt lat="42.81366" lon="-0.10631">
        <ele>2079.9497070312</ele>
        <time>2013-10-06T12:33:20Z</time>
      </trkpt>
      <trkpt lat="42.81354" lon="-0.10613">
        <ele>2076.1044921875</ele>
        <time>2013-10-06T12:36:31Z</time>
      </trkpt>
      <trkpt lat="42.81337" lon="-0.10587">
        <ele>2071.7783203125</ele>
        <time>2013-10-06T12:37:26Z</time>
      </trkpt>
      <trkpt lat="42.8133" lon="-0.10571">
        <ele>2065.5300292969</ele>
        <time>2013-10-06T12:38:00Z</time>
      </trkpt>
      <trkpt lat="42.81338" lon="-0.10554">
        <ele>2055.9165039062</ele>
        <time>2013-10-06T12:39:38Z</time>
      </trkpt>
      <trkpt lat="42.81339" lon="-0.10522">
        <ele>2043.4194335938</ele>
        <time>2013-10-06T12:40:37Z</time>
      </trkpt>
      <trkpt lat="42.81355" lon="-0.10499">
        <ele>2029.9611816406</ele>
        <time>2013-10-06T12:42:04Z</time>
      </trkpt>
      <trkpt lat="42.81392" lon="-0.10489">
        <ele>2005.9279785156</ele>
        <time>2013-10-06T12:43:57Z</time>
      </trkpt>
      <trkpt lat="42.81437" lon="-0.10504">
        <ele>1986.2211914062</ele>
        <time>2013-10-06T12:45:45Z</time>
      </trkpt>
      <trkpt lat="42.81461" lon="-0.10513">
        <ele>1974.6853027344</ele>
        <time>2013-10-06T12:46:56Z</time>
      </trkpt>
      <trkpt lat="42.81479" lon="-0.10512">
        <ele>1961.7075195312</ele>
        <time>2013-10-06T12:48:09Z</time>
      </trkpt>
      <trkpt lat="42.81543" lon="-0.10503">
        <ele>1916.5256347656</ele>
        <time>2013-10-06T12:51:42Z</time>
      </trkpt>
      <trkpt lat="42.81578" lon="-0.10483">
        <ele>1895.8571777344</ele>
        <time>2013-10-06T12:59:22Z</time>
      </trkpt>
      <trkpt lat="42.81592" lon="-0.10475">
        <ele>1890.0893554688</ele>
        <time>2013-10-06T12:59:49Z</time>
      </trkpt>
      <trkpt lat="42.81609" lon="-0.10454">
        <ele>1878.5534667969</ele>
        <time>2013-10-06T13:01:10Z</time>
      </trkpt>
      <trkpt lat="42.81625" lon="-0.10421">
        <ele>1862.6916503906</ele>
        <time>2013-10-06T13:03:03Z</time>
      </trkpt>
      <trkpt lat="42.81637" lon="-0.10404">
        <ele>1853.0786132812</ele>
        <time>2013-10-06T13:04:07Z</time>
      </trkpt>
      <trkpt lat="42.81649" lon="-0.10379">
        <ele>1839.1394042969</ele>
        <time>2013-10-06T13:05:21Z</time>
      </trkpt>
      <trkpt lat="42.81661" lon="-0.10345">
        <ele>1825.6809082031</ele>
        <time>2013-10-06T13:06:44Z</time>
      </trkpt>
      <trkpt lat="42.81672" lon="-0.10319">
        <ele>1812.2224121094</ele>
        <time>2013-10-06T13:07:50Z</time>
      </trkpt>
      <trkpt lat="42.81682" lon="-0.10289">
        <ele>1798.283203125</ele>
        <time>2013-10-06T13:09:12Z</time>
      </trkpt>
      <trkpt lat="42.81697" lon="-0.10272">
        <ele>1785.3054199219</ele>
        <time>2013-10-06T13:10:21Z</time>
      </trkpt>
      <trkpt lat="42.81708" lon="-0.10241">
        <ele>1769.4438476562</ele>
        <time>2013-10-06T13:11:50Z</time>
      </trkpt>
      <trkpt lat="42.81716" lon="-0.10211">
        <ele>1753.1013183594</ele>
        <time>2013-10-06T13:12:59Z</time>
      </trkpt>
      <trkpt lat="42.81729" lon="-0.10193">
        <ele>1743.48828125</ele>
        <time>2013-10-06T13:14:07Z</time>
      </trkpt>
      <trkpt lat="42.81739" lon="-0.10161">
        <ele>1725.7038574219</ele>
        <time>2013-10-06T13:15:19Z</time>
      </trkpt>
      <trkpt lat="42.81754" lon="-0.10129">
        <ele>1710.8034667969</ele>
        <time>2013-10-06T13:16:22Z</time>
      </trkpt>
      <trkpt lat="42.81766" lon="-0.10117">
        <ele>1704.5546875</ele>
        <time>2013-10-06T13:16:58Z</time>
      </trkpt>
      <trkpt lat="42.81794" lon="-0.10077">
        <ele>1685.3283691406</ele>
        <time>2013-10-06T13:27:07Z</time>
      </trkpt>
      <trkpt lat="42.81868" lon="-0.09996">
        <ele>1645.4338378906</ele>
        <time>2013-10-06T13:30:04Z</time>
      </trkpt>
      <trkpt lat="42.81875" lon="-0.0996">
        <ele>1637.2624511719</ele>
        <time>2013-10-06T13:30:54Z</time>
      </trkpt>
      <trkpt lat="42.81886" lon="-0.09891">
        <ele>1625.2458496094</ele>
        <time>2013-10-06T13:31:52Z</time>
      </trkpt>
      <trkpt lat="42.81886" lon="-0.09869">
        <ele>1620.9201660156</ele>
        <time>2013-10-06T13:32:13Z</time>
      </trkpt>
      <trkpt lat="42.81889" lon="-0.09829">
        <ele>1613.2297363281</ele>
        <time>2013-10-06T13:33:09Z</time>
      </trkpt>
      <trkpt lat="42.81907" lon="-0.09826">
        <ele>1606.9809570312</ele>
        <time>2013-10-06T13:34:03Z</time>
      </trkpt>
      <trkpt lat="42.81947" lon="-0.09832">
        <ele>1606.9809570312</ele>
        <time>2013-10-06T13:39:14Z</time>
      </trkpt>
      <trkpt lat="42.8197" lon="-0.09834">
        <ele>1608.4228515625</ele>
        <time>2013-10-06T13:39:44Z</time>
      </trkpt>
      <trkpt lat="42.81984" lon="-0.09824">
        <ele>1603.1357421875</ele>
        <time>2013-10-06T13:40:08Z</time>
      </trkpt>
      <trkpt lat="42.82004" lon="-0.09806">
        <ele>1599.2905273438</ele>
        <time>2013-10-06T13:40:37Z</time>
      </trkpt>
      <trkpt lat="42.82033" lon="-0.0979">
        <ele>1592.5612792969</ele>
        <time>2013-10-06T13:41:15Z</time>
      </trkpt>
      <trkpt lat="42.82053" lon="-0.09793">
        <ele>1591.119140625</ele>
        <time>2013-10-06T13:41:35Z</time>
      </trkpt>
      <trkpt lat="42.82088" lon="-0.09801">
        <ele>1587.2739257812</ele>
        <time>2013-10-06T13:42:17Z</time>
      </trkpt>
      <trkpt lat="42.82112" lon="-0.09805">
        <ele>1585.83203125</ele>
        <time>2013-10-06T13:42:43Z</time>
      </trkpt>
      <trkpt lat="42.82209" lon="-0.09755">
        <ele>1574.7768554688</ele>
        <time>2013-10-06T13:44:24Z</time>
      </trkpt>
      <trkpt lat="42.82258" lon="-0.09727">
        <ele>1569.0090332031</ele>
        <time>2013-10-06T13:45:07Z</time>
      </trkpt>
      <trkpt lat="42.82273" lon="-0.09723">
        <ele>1568.0476074219</ele>
        <time>2013-10-06T13:45:19Z</time>
      </trkpt>
      <trkpt lat="42.82287" lon="-0.09724">
        <ele>1568.0476074219</ele>
        <time>2013-10-06T13:45:30Z</time>
      </trkpt>
      <trkpt lat="42.82355" lon="-0.09696">
        <ele>1562.2795410156</ele>
        <time>2013-10-06T13:46:40Z</time>
      </trkpt>
      <trkpt lat="42.82372" lon="-0.09683">
        <ele>1560.8376464844</ele>
        <time>2013-10-06T13:46:56Z</time>
      </trkpt>
      <trkpt lat="42.82388" lon="-0.0965">
        <ele>1558.4343261719</ele>
        <time>2013-10-06T13:47:34Z</time>
      </trkpt>
      <trkpt lat="42.82387" lon="-0.09642">
        <ele>1557.4731445312</ele>
        <time>2013-10-06T13:50:17Z</time>
      </trkpt>
      <trkpt lat="42.82426" lon="-0.09634">
        <ele>1556.9924316406</ele>
        <time>2013-10-06T13:51:04Z</time>
      </trkpt>
      <trkpt lat="42.82465" lon="-0.09622">
        <ele>1555.5505371094</ele>
        <time>2013-10-06T13:51:51Z</time>
      </trkpt>
      <trkpt lat="42.82507" lon="-0.0963">
        <ele>1553.1472167969</ele>
        <time>2013-10-06T13:52:30Z</time>
      </trkpt>
      <trkpt lat="42.82526" lon="-0.09618">
        <ele>1553.6279296875</ele>
        <time>2013-10-06T13:52:51Z</time>
      </trkpt>
      <trkpt lat="42.82561" lon="-0.0962">
        <ele>1556.51171875</ele>
        <time>2013-10-06T13:53:24Z</time>
      </trkpt>
      <trkpt lat="42.82584" lon="-0.09628">
        <ele>1554.5891113281</ele>
        <time>2013-10-06T13:53:48Z</time>
      </trkpt>
      <trkpt lat="42.82604" lon="-0.09622">
        <ele>1554.1086425781</ele>
        <time>2013-10-06T13:54:06Z</time>
      </trkpt>
      <trkpt lat="42.82639" lon="-0.09622">
        <ele>1550.7438964844</ele>
        <time>2013-10-06T13:54:40Z</time>
      </trkpt>
      <trkpt lat="42.82692" lon="-0.09581">
        <ele>1548.3405761719</ele>
        <time>2013-10-06T13:55:33Z</time>
      </trkpt>
      <trkpt lat="42.82715" lon="-0.09566">
        <ele>1545.4565429688</ele>
        <time>2013-10-06T13:56:27Z</time>
      </trkpt>
      <trkpt lat="42.82736" lon="-0.09583">
        <ele>1544.4951171875</ele>
        <time>2013-10-06T13:56:55Z</time>
      </trkpt>
      <trkpt lat="42.82758" lon="-0.09598">
        <ele>1541.611328125</ele>
        <time>2013-10-06T13:57:18Z</time>
      </trkpt>
      <trkpt lat="42.82783" lon="-0.09614">
        <ele>1538.7275390625</ele>
        <time>2013-10-06T13:57:43Z</time>
      </trkpt>
      <trkpt lat="42.82852" lon="-0.09644">
        <ele>1534.4016113281</ele>
        <time>2013-10-06T13:58:45Z</time>
      </trkpt>
      <trkpt lat="42.82868" lon="-0.09637">
        <ele>1536.32421875</ele>
        <time>2013-10-06T13:59:05Z</time>
      </trkpt>
      <trkpt lat="42.82911" lon="-0.09634">
        <ele>1533.9208984375</ele>
        <time>2013-10-06T13:59:55Z</time>
      </trkpt>
      <trkpt lat="42.82924" lon="-0.09619">
        <ele>1537.2854003906</ele>
        <time>2013-10-06T14:00:14Z</time>
      </trkpt>
      <trkpt lat="42.82921" lon="-0.0964">
        <ele>1534.8823242188</ele>
        <time>2013-10-06T14:01:19Z</time>
      </trkpt>
      <trkpt lat="42.82937" lon="-0.09654">
        <ele>1531.5173339844</ele>
        <time>2013-10-06T14:01:39Z</time>
      </trkpt>
      <trkpt lat="42.82956" lon="-0.09657">
        <ele>1527.1916503906</ele>
        <time>2013-10-06T14:01:55Z</time>
      </trkpt>
      <trkpt lat="42.82973" lon="-0.09647">
        <ele>1527.1916503906</ele>
        <time>2013-10-06T14:02:08Z</time>
      </trkpt>
      <trkpt lat="42.83001" lon="-0.0966">
        <ele>1526.2302246094</ele>
        <time>2013-10-06T14:02:37Z</time>
      </trkpt>
      <trkpt lat="42.83018" lon="-0.09641">
        <ele>1528.6335449219</ele>
        <time>2013-10-06T14:03:05Z</time>
      </trkpt>
      <trkpt lat="42.83037" lon="-0.09624">
        <ele>1527.6721191406</ele>
        <time>2013-10-06T14:03:34Z</time>
      </trkpt>
      <trkpt lat="42.83062" lon="-0.0962">
        <ele>1526.7109375</ele>
        <time>2013-10-06T14:04:00Z</time>
      </trkpt>
      <trkpt lat="42.83082" lon="-0.09611">
        <ele>1525.7495117188</ele>
        <time>2013-10-06T14:04:24Z</time>
      </trkpt>
      <trkpt lat="42.8314" lon="-0.09591">
        <ele>1521.4235839844</ele>
        <time>2013-10-06T14:05:18Z</time>
      </trkpt>
      <trkpt lat="42.83193" lon="-0.09578">
        <ele>1513.7329101562</ele>
        <time>2013-10-06T14:06:16Z</time>
      </trkpt>
      <trkpt lat="42.8322" lon="-0.09583">
        <ele>1506.5231933594</ele>
        <time>2013-10-06T14:06:47Z</time>
      </trkpt>
      <trkpt lat="42.83232" lon="-0.09592">
        <ele>1503.1586914062</ele>
        <time>2013-10-06T14:07:09Z</time>
      </trkpt>
      <trkpt lat="42.83249" lon="-0.09604">
        <ele>1500.7553710938</ele>
        <time>2013-10-06T14:07:27Z</time>
      </trkpt>
      <trkpt lat="42.83266" lon="-0.09609">
        <ele>1498.3518066406</ele>
        <time>2013-10-06T14:07:40Z</time>
      </trkpt>
      <trkpt lat="42.83321" lon="-0.09602">
        <ele>1494.5065917969</ele>
        <time>2013-10-06T14:08:19Z</time>
      </trkpt>
      <trkpt lat="42.83349" lon="-0.09598">
        <ele>1493.5454101562</ele>
        <time>2013-10-06T14:08:43Z</time>
      </trkpt>
      <trkpt lat="42.83385" lon="-0.09597">
        <ele>1491.6228027344</ele>
        <time>2013-10-06T14:09:15Z</time>
      </trkpt>
      <trkpt lat="42.83398" lon="-0.09602">
        <ele>1491.6228027344</ele>
        <time>2013-10-06T14:09:26Z</time>
      </trkpt>
      <trkpt lat="42.83419" lon="-0.09611">
        <ele>1491.1420898438</ele>
        <time>2013-10-06T14:09:41Z</time>
      </trkpt>
      <trkpt lat="42.83447" lon="-0.09608">
        <ele>1490.1809082031</ele>
        <time>2013-10-06T14:10:06Z</time>
      </trkpt>
      <trkpt lat="42.83461" lon="-0.09616">
        <ele>1489.7001953125</ele>
        <time>2013-10-06T14:10:19Z</time>
      </trkpt>
      <trkpt lat="42.83477" lon="-0.09627">
        <ele>1489.2194824219</ele>
        <time>2013-10-06T14:10:34Z</time>
      </trkpt>
      <trkpt lat="42.83491" lon="-0.09636">
        <ele>1486.8161621094</ele>
        <time>2013-10-06T14:10:50Z</time>
      </trkpt>
      <trkpt lat="42.83525" lon="-0.09649">
        <ele>1485.8549804688</ele>
        <time>2013-10-06T14:11:17Z</time>
      </trkpt>
      <trkpt lat="42.83539" lon="-0.09657">
        <ele>1485.8549804688</ele>
        <time>2013-10-06T14:11:29Z</time>
      </trkpt>
      <trkpt lat="42.83566" lon="-0.0967">
        <ele>1481.0483398438</ele>
        <time>2013-10-06T14:11:50Z</time>
      </trkpt>
      <trkpt lat="42.83631" lon="-0.09664">
        <ele>1478.6450195312</ele>
        <time>2013-10-06T14:12:42Z</time>
      </trkpt>
      <trkpt lat="42.83652" lon="-0.0967">
        <ele>1479.1254882812</ele>
        <time>2013-10-06T14:12:58Z</time>
      </trkpt>
      <trkpt lat="42.8367" lon="-0.09674">
        <ele>1477.68359375</ele>
        <time>2013-10-06T14:13:13Z</time>
      </trkpt>
      <trkpt lat="42.83686" lon="-0.0967">
        <ele>1477.203125</ele>
        <time>2013-10-06T14:13:24Z</time>
      </trkpt>
      <trkpt lat="42.83716" lon="-0.09648">
        <ele>1475.7609863281</ele>
        <time>2013-10-06T14:13:49Z</time>
      </trkpt>
      <trkpt lat="42.8374" lon="-0.09634">
        <ele>1476.2416992188</ele>
        <time>2013-10-06T14:14:08Z</time>
      </trkpt>
      <trkpt lat="42.83761" lon="-0.09629">
        <ele>1475.2802734375</ele>
        <time>2013-10-06T14:14:24Z</time>
      </trkpt>
      <trkpt lat="42.83775" lon="-0.09617">
        <ele>1473.8383789062</ele>
        <time>2013-10-06T14:14:36Z</time>
      </trkpt>
      <trkpt lat="42.838" lon="-0.09608">
        <ele>1472.396484375</ele>
        <time>2013-10-06T14:14:57Z</time>
      </trkpt>
      <trkpt lat="42.83816" lon="-0.09601">
        <ele>1471.9157714844</ele>
        <time>2013-10-06T14:15:10Z</time>
      </trkpt>
      <trkpt lat="42.83841" lon="-0.09598">
        <ele>1470.4738769531</ele>
        <time>2013-10-06T14:15:31Z</time>
      </trkpt>
      <trkpt lat="42.83865" lon="-0.09605">
        <ele>1470.9545898438</ele>
        <time>2013-10-06T14:15:49Z</time>
      </trkpt>
      <trkpt lat="42.83886" lon="-0.09613">
        <ele>1470.4738769531</ele>
        <time>2013-10-06T14:16:04Z</time>
      </trkpt>
      <trkpt lat="42.83899" lon="-0.09622">
        <ele>1469.5126953125</ele>
        <time>2013-10-06T14:16:17Z</time>
      </trkpt>
      <trkpt lat="42.83928" lon="-0.0963">
        <ele>1469.0319824219</ele>
        <time>2013-10-06T14:16:39Z</time>
      </trkpt>
      <trkpt lat="42.83949" lon="-0.09627">
        <ele>1468.5512695312</ele>
        <time>2013-10-06T14:16:59Z</time>
      </trkpt>
      <trkpt lat="42.83973" lon="-0.09628">
        <ele>1467.5895996094</ele>
        <time>2013-10-06T14:17:16Z</time>
      </trkpt>
      <trkpt lat="42.84003" lon="-0.09654">
        <ele>1467.1091308594</ele>
        <time>2013-10-06T14:17:55Z</time>
      </trkpt>
      <trkpt lat="42.84015" lon="-0.09669">
        <ele>1466.1477050781</ele>
        <time>2013-10-06T14:18:08Z</time>
      </trkpt>
      <trkpt lat="42.84034" lon="-0.09663">
        <ele>1466.1477050781</ele>
        <time>2013-10-06T14:18:22Z</time>
      </trkpt>
      <trkpt lat="42.84061" lon="-0.09665">
        <ele>1464.7058105469</ele>
        <time>2013-10-06T14:18:42Z</time>
      </trkpt>
      <trkpt lat="42.84083" lon="-0.09675">
        <ele>1466.6284179688</ele>
        <time>2013-10-06T14:19:08Z</time>
      </trkpt>
      <trkpt lat="42.84107" lon="-0.0971">
        <ele>1460.3798828125</ele>
        <time>2013-10-06T14:19:48Z</time>
      </trkpt>
      <trkpt lat="42.84118" lon="-0.09722">
        <ele>1457.49609375</ele>
        <time>2013-10-06T14:20:01Z</time>
      </trkpt>
      <trkpt lat="42.84133" lon="-0.09734">
        <ele>1454.6120605469</ele>
        <time>2013-10-06T14:20:18Z</time>
      </trkpt>
      <trkpt lat="42.84154" lon="-0.09734">
        <ele>1453.6508789062</ele>
        <time>2013-10-06T14:20:35Z</time>
      </trkpt>
      <trkpt lat="42.8417" lon="-0.09729">
        <ele>1453.1701660156</ele>
        <time>2013-10-06T14:20:48Z</time>
      </trkpt>
      <trkpt lat="42.84191" lon="-0.09702">
        <ele>1449.8054199219</ele>
        <time>2013-10-06T14:21:15Z</time>
      </trkpt>
      <trkpt lat="42.84196" lon="-0.09681">
        <ele>1447.8828125</ele>
        <time>2013-10-06T14:21:32Z</time>
      </trkpt>
      <trkpt lat="42.84204" lon="-0.09663">
        <ele>1445.4794921875</ele>
        <time>2013-10-06T14:21:47Z</time>
      </trkpt>
      <trkpt lat="42.84223" lon="-0.09655">
        <ele>1446.9213867188</ele>
        <time>2013-10-06T14:22:02Z</time>
      </trkpt>
      <trkpt lat="42.84243" lon="-0.09657">
        <ele>1446.9213867188</ele>
        <time>2013-10-06T14:22:17Z</time>
      </trkpt>
      <trkpt lat="42.8426" lon="-0.09657">
        <ele>1446.9213867188</ele>
        <time>2013-10-06T14:22:31Z</time>
      </trkpt>
      <trkpt lat="42.8428" lon="-0.09658">
        <ele>1444.9987792969</ele>
        <time>2013-10-06T14:22:48Z</time>
      </trkpt>
      <trkpt lat="42.84294" lon="-0.0966">
        <ele>1446.9213867188</ele>
        <time>2013-10-06T14:23:03Z</time>
      </trkpt>
      <trkpt lat="42.84318" lon="-0.09661">
        <ele>1445.9602050781</ele>
        <time>2013-10-06T14:23:27Z</time>
      </trkpt>
      <trkpt lat="42.84351" lon="-0.09662">
        <ele>1443.5568847656</ele>
        <time>2013-10-06T14:23:51Z</time>
      </trkpt>
      <trkpt lat="42.84371" lon="-0.09664">
        <ele>1443.5568847656</ele>
        <time>2013-10-06T14:24:07Z</time>
      </trkpt>
      <trkpt lat="42.84399" lon="-0.09669">
        <ele>1440.1923828125</ele>
        <time>2013-10-06T14:24:33Z</time>
      </trkpt>
      <trkpt lat="42.8443" lon="-0.09657">
        <ele>1436.8276367188</ele>
        <time>2013-10-06T14:24:56Z</time>
      </trkpt>
      <trkpt lat="42.84446" lon="-0.0965">
        <ele>1430.5791015625</ele>
        <time>2013-10-06T14:25:11Z</time>
      </trkpt>
      <trkpt lat="42.84458" lon="-0.09642">
        <ele>1429.1369628906</ele>
        <time>2013-10-06T14:25:24Z</time>
      </trkpt>
      <trkpt lat="42.84473" lon="-0.09636">
        <ele>1425.7724609375</ele>
        <time>2013-10-06T14:25:39Z</time>
      </trkpt>
      <trkpt lat="42.84488" lon="-0.09633">
        <ele>1422.888671875</ele>
        <time>2013-10-06T14:25:54Z</time>
      </trkpt>
      <trkpt lat="42.84528" lon="-0.09618">
        <ele>1418.0817871094</ele>
        <time>2013-10-06T14:26:29Z</time>
      </trkpt>
      <trkpt lat="42.84545" lon="-0.09614">
        <ele>1416.6398925781</ele>
        <time>2013-10-06T14:26:43Z</time>
      </trkpt>
      <trkpt lat="42.84567" lon="-0.09616">
        <ele>1415.1979980469</ele>
        <time>2013-10-06T14:26:59Z</time>
      </trkpt>
      <trkpt lat="42.84583" lon="-0.09625">
        <ele>1413.755859375</ele>
        <time>2013-10-06T14:27:12Z</time>
      </trkpt>
      <trkpt lat="42.8461" lon="-0.0962">
        <ele>1409.9106445312</ele>
        <time>2013-10-06T14:27:37Z</time>
      </trkpt>
      <trkpt lat="42.84635" lon="-0.09616">
        <ele>1407.98828125</ele>
        <time>2013-10-06T14:27:56Z</time>
      </trkpt>
      <trkpt lat="42.84665" lon="-0.09618">
        <ele>1407.0268554688</ele>
        <time>2013-10-06T14:28:20Z</time>
      </trkpt>
      <trkpt lat="42.84689" lon="-0.09621">
        <ele>1407.5075683594</ele>
        <time>2013-10-06T14:28:42Z</time>
      </trkpt>
      <trkpt lat="42.84706" lon="-0.0962">
        <ele>1406.5461425781</ele>
        <time>2013-10-06T14:28:59Z</time>
      </trkpt>
      <trkpt lat="42.84723" lon="-0.09626">
        <ele>1404.6235351562</ele>
        <time>2013-10-06T14:29:13Z</time>
      </trkpt>
      <trkpt lat="42.8474" lon="-0.0963">
        <ele>1403.1813964844</ele>
        <time>2013-10-06T14:29:27Z</time>
      </trkpt>
      <trkpt lat="42.84759" lon="-0.09638">
        <ele>1402.7006835938</ele>
        <time>2013-10-06T14:29:45Z</time>
      </trkpt>
      <trkpt lat="42.8478" lon="-0.09654">
        <ele>1401.2587890625</ele>
        <time>2013-10-06T14:30:06Z</time>
      </trkpt>
      <trkpt lat="42.84807" lon="-0.09662">
        <ele>1400.2976074219</ele>
        <time>2013-10-06T14:30:31Z</time>
      </trkpt>
      <trkpt lat="42.84839" lon="-0.09675">
        <ele>1395.9716796875</ele>
        <time>2013-10-06T14:31:03Z</time>
      </trkpt>
      <trkpt lat="42.84861" lon="-0.09686">
        <ele>1395.0102539062</ele>
        <time>2013-10-06T14:31:22Z</time>
      </trkpt>
      <trkpt lat="42.84881" lon="-0.09695">
        <ele>1393.568359375</ele>
        <time>2013-10-06T14:31:40Z</time>
      </trkpt>
      <trkpt lat="42.84898" lon="-0.09705">
        <ele>1392.6071777344</ele>
        <time>2013-10-06T14:31:57Z</time>
      </trkpt>
      <trkpt lat="42.84933" lon="-0.09736">
        <ele>1394.0490722656</ele>
        <time>2013-10-06T14:32:31Z</time>
      </trkpt>
      <trkpt lat="42.84954" lon="-0.0975">
        <ele>1393.0876464844</ele>
        <time>2013-10-06T14:32:51Z</time>
      </trkpt>
      <trkpt lat="42.84977" lon="-0.09757">
        <ele>1392.1264648438</ele>
        <time>2013-10-06T14:33:11Z</time>
      </trkpt>
      <trkpt lat="42.84997" lon="-0.09759">
        <ele>1391.1650390625</ele>
        <time>2013-10-06T14:33:29Z</time>
      </trkpt>
      <trkpt lat="42.85015" lon="-0.09764">
        <ele>1390.6843261719</ele>
        <time>2013-10-06T14:33:45Z</time>
      </trkpt>
      <trkpt lat="42.85032" lon="-0.09772">
        <ele>1388.7619628906</ele>
        <time>2013-10-06T14:34:00Z</time>
      </trkpt>
      <trkpt lat="42.85052" lon="-0.09776">
        <ele>1387.3195800781</ele>
        <time>2013-10-06T14:34:16Z</time>
      </trkpt>
      <trkpt lat="42.85075" lon="-0.09782">
        <ele>1385.3969726562</ele>
        <time>2013-10-06T14:34:36Z</time>
      </trkpt>
      <trkpt lat="42.85099" lon="-0.09782">
        <ele>1383.4743652344</ele>
        <time>2013-10-06T14:34:55Z</time>
      </trkpt>
      <trkpt lat="42.85123" lon="-0.09783">
        <ele>1382.9936523438</ele>
        <time>2013-10-06T14:35:15Z</time>
      </trkpt>
      <trkpt lat="42.8515" lon="-0.09782">
        <ele>1381.5517578125</ele>
        <time>2013-10-06T14:35:36Z</time>
      </trkpt>
      <trkpt lat="42.85176" lon="-0.09779">
        <ele>1380.5905761719</ele>
        <time>2013-10-06T14:35:55Z</time>
      </trkpt>
      <trkpt lat="42.85193" lon="-0.09778">
        <ele>1380.1098632812</ele>
        <time>2013-10-06T14:36:09Z</time>
      </trkpt>
      <trkpt lat="42.85211" lon="-0.09786">
        <ele>1378.1872558594</ele>
        <time>2013-10-06T14:36:25Z</time>
      </trkpt>
      <trkpt lat="42.85241" lon="-0.09798">
        <ele>1377.2260742188</ele>
        <time>2013-10-06T14:36:56Z</time>
      </trkpt>
      <trkpt lat="42.85253" lon="-0.09812">
        <ele>1377.2260742188</ele>
        <time>2013-10-06T14:37:11Z</time>
      </trkpt>
      <trkpt lat="42.85267" lon="-0.09812">
        <ele>1377.2260742188</ele>
        <time>2013-10-06T14:37:23Z</time>
      </trkpt>
      <trkpt lat="42.85284" lon="-0.09809">
        <ele>1375.3032226562</ele>
        <time>2013-10-06T14:37:39Z</time>
      </trkpt>
      <trkpt lat="42.85311" lon="-0.09807">
        <ele>1375.7839355469</ele>
        <time>2013-10-06T14:38:07Z</time>
      </trkpt>
      <trkpt lat="42.85322" lon="-0.09806">
        <ele>1374.3420410156</ele>
        <time>2013-10-06T14:38:17Z</time>
      </trkpt>
    </trkseg>
  </trk>
</gpx>